sensor_id;sensor_type;location;lat;lon;timestamp;P1;durP1;ratioP1;P2;durP2;ratioP2
27375;SDS011;14844;51.302;6.354;2023-02-01T00:01:44;32.70;;;13.05;;
27375;SDS011;14844;51.302;6.354;2023-02-01T00:04:10;40.60;;;14.52;;
27375;SDS011;14844;51.302;6.354;2023-02-01T00:06:35;36.78;;;15.02;;
27375;SDS011;14844;51.302;6.354;2023-02-01T00:09:01;36.55;;;15.15;;
27375;SDS011;14844;51.302;6.354;2023-02-01T00:11:27;34.22;;;15.60;;
27375;SDS011;14844;51.302;6.354;2023-02-01T00:13:53;42.00;;;14.45;;
27375;SDS011;14844;51.302;6.354;2023-02-01T00:16:19;37.38;;;15.43;;
27375;SDS011;14844;51.302;6.354;2023-02-01T00:18:48;42.13;;;14.13;;
27375;SDS011;14844;51.302;6.354;2023-02-01T00:21:17;36.85;;;14.75;;
27375;SDS011;14844;51.302;6.354;2023-02-01T00:23:44;33.50;;;12.95;;
27375;SDS011;14844;51.302;6.354;2023-02-01T00:26:15;36.88;;;12.38;;
27375;SDS011;14844;51.302;6.354;2023-02-01T00:28:47;35.17;;;12.05;;
27375;SDS011;14844;51.302;6.354;2023-02-01T00:31:12;32.55;;;11.52;;
27375;SDS011;14844;51.302;6.354;2023-02-01T00:33:38;36.83;;;11.05;;
27375;SDS011;14844;51.302;6.354;2023-02-01T00:36:05;35.83;;;9.90;;
27375;SDS011;14844;51.302;6.354;2023-02-01T00:38:33;36.13;;;10.25;;
27375;SDS011;14844;51.302;6.354;2023-02-01T00:43:36;37.33;;;10.57;;
27375;SDS011;14844;51.302;6.354;2023-02-01T00:46:02;31.25;;;9.30;;
27375;SDS011;14844;51.302;6.354;2023-02-01T00:48:28;37.42;;;9.63;;
27375;SDS011;14844;51.302;6.354;2023-02-01T00:50:54;38.88;;;9.02;;
27375;SDS011;14844;51.302;6.354;2023-02-01T00:53:19;32.67;;;8.50;;
27375;SDS011;14844;51.302;6.354;2023-02-01T00:55:46;30.90;;;8.27;;
27375;SDS011;14844;51.302;6.354;2023-02-01T00:58:12;27.55;;;7.28;;
27375;SDS011;14844;51.302;6.354;2023-02-01T01:00:37;37.05;;;8.10;;
27375;SDS011;14844;51.302;6.354;2023-02-01T01:03:03;24.63;;;7.05;;
27375;SDS011;14844;51.302;6.354;2023-02-01T01:05:42;29.55;;;7.03;;
27375;SDS011;14844;51.302;6.354;2023-02-01T01:08:12;32.08;;;7.15;;
27375;SDS011;14844;51.302;6.354;2023-02-01T01:10:38;27.15;;;6.43;;
27375;SDS011;14844;51.302;6.354;2023-02-01T01:13:04;31.50;;;6.90;;
27375;SDS011;14844;51.302;6.354;2023-02-01T01:15:30;26.08;;;5.95;;
27375;SDS011;14844;51.302;6.354;2023-02-01T01:17:55;23.45;;;6.03;;
27375;SDS011;14844;51.302;6.354;2023-02-01T01:20:21;30.45;;;6.22;;
27375;SDS011;14844;51.302;6.354;2023-02-01T01:22:50;30.27;;;6.43;;
27375;SDS011;14844;51.302;6.354;2023-02-01T01:25:15;24.90;;;5.43;;
27375;SDS011;14844;51.302;6.354;2023-02-01T01:27:41;27.73;;;5.60;;
27375;SDS011;14844;51.302;6.354;2023-02-01T01:30:06;31.15;;;6.00;;
27375;SDS011;14844;51.302;6.354;2023-02-01T01:32:32;24.90;;;5.55;;
27375;SDS011;14844;51.302;6.354;2023-02-01T01:34:58;39.15;;;5.88;;
27375;SDS011;14844;51.302;6.354;2023-02-01T01:37:23;27.13;;;5.72;;
27375;SDS011;14844;51.302;6.354;2023-02-01T01:39:49;30.20;;;5.65;;
27375;SDS011;14844;51.302;6.354;2023-02-01T01:42:15;28.75;;;5.50;;
27375;SDS011;14844;51.302;6.354;2023-02-01T01:44:55;29.17;;;5.25;;
27375;SDS011;14844;51.302;6.354;2023-02-01T01:47:30;26.50;;;5.55;;
27375;SDS011;14844;51.302;6.354;2023-02-01T01:50:02;25.85;;;5.82;;
27375;SDS011;14844;51.302;6.354;2023-02-01T01:52:31;29.25;;;5.30;;
27375;SDS011;14844;51.302;6.354;2023-02-01T01:54:57;35.30;;;5.70;;
27375;SDS011;14844;51.302;6.354;2023-02-01T01:57:25;35.88;;;6.18;;
27375;SDS011;14844;51.302;6.354;2023-02-01T01:59:59;33.97;;;5.55;;
27375;SDS011;14844;51.302;6.354;2023-02-01T02:02:40;32.10;;;5.47;;
27375;SDS011;14844;51.302;6.354;2023-02-01T02:05:09;28.45;;;5.78;;
27375;SDS011;14844;51.302;6.354;2023-02-01T02:07:37;28.48;;;6.03;;
27375;SDS011;14844;51.302;6.354;2023-02-01T02:10:07;30.65;;;5.43;;
27375;SDS011;14844;51.302;6.354;2023-02-01T02:12:35;35.85;;;5.82;;
27375;SDS011;14844;51.302;6.354;2023-02-01T02:15:04;29.10;;;5.70;;
27375;SDS011;14844;51.302;6.354;2023-02-01T02:28:28;30.75;;;5.28;;
27375;SDS011;14844;51.302;6.354;2023-02-01T02:34:01;25.50;;;5.80;;
27375;SDS011;14844;51.302;6.354;2023-02-01T02:48:17;40.25;;;6.68;;
27375;SDS011;14844;51.302;6.354;2023-02-01T02:50:42;24.85;;;5.80;;
27375;SDS011;14844;51.302;6.354;2023-02-01T02:53:34;39.95;;;6.88;;
27375;SDS011;14844;51.302;6.354;2023-02-01T02:56:28;29.52;;;6.65;;
27375;SDS011;14844;51.302;6.354;2023-02-01T02:59:13;30.58;;;7.18;;
27375;SDS011;14844;51.302;6.354;2023-02-01T03:02:00;39.00;;;6.85;;
27375;SDS011;14844;51.302;6.354;2023-02-01T03:04:45;36.47;;;6.85;;
27375;SDS011;14844;51.302;6.354;2023-02-01T03:07:15;31.17;;;6.40;;
27375;SDS011;14844;51.302;6.354;2023-02-01T03:10:10;27.52;;;6.30;;
27375;SDS011;14844;51.302;6.354;2023-02-01T03:12:47;33.10;;;7.45;;
27375;SDS011;14844;51.302;6.354;2023-02-01T03:15:24;32.78;;;7.03;;
27375;SDS011;14844;51.302;6.354;2023-02-01T03:18:17;33.22;;;6.55;;
27375;SDS011;14844;51.302;6.354;2023-02-01T03:20:50;31.83;;;6.68;;
27375;SDS011;14844;51.302;6.354;2023-02-01T03:23:19;30.63;;;7.22;;
27375;SDS011;14844;51.302;6.354;2023-02-01T03:25:47;34.38;;;6.72;;
27375;SDS011;14844;51.302;6.354;2023-02-01T03:28:14;37.03;;;7.43;;
27375;SDS011;14844;51.302;6.354;2023-02-01T03:30:45;34.17;;;6.60;;
27375;SDS011;14844;51.302;6.354;2023-02-01T03:33:13;29.73;;;6.15;;
27375;SDS011;14844;51.302;6.354;2023-02-01T03:36:06;27.98;;;5.78;;
27375;SDS011;14844;51.302;6.354;2023-02-01T03:41:41;33.55;;;6.70;;
27375;SDS011;14844;51.302;6.354;2023-02-01T03:44:26;29.08;;;6.05;;
27375;SDS011;14844;51.302;6.354;2023-02-01T03:46:58;27.23;;;5.63;;
27375;SDS011;14844;51.302;6.354;2023-02-01T03:49:41;30.50;;;5.28;;
27375;SDS011;14844;51.302;6.354;2023-02-01T03:52:14;31.42;;;5.93;;
27375;SDS011;14844;51.302;6.354;2023-02-01T03:54:45;35.00;;;6.57;;
27375;SDS011;14844;51.302;6.354;2023-02-01T03:57:13;30.10;;;6.07;;
27375;SDS011;14844;51.302;6.354;2023-02-01T03:59:43;43.35;;;6.72;;
27375;SDS011;14844;51.302;6.354;2023-02-01T04:02:10;29.05;;;6.15;;
27375;SDS011;14844;51.302;6.354;2023-02-01T04:04:36;30.73;;;6.03;;
27375;SDS011;14844;51.302;6.354;2023-02-01T04:07:03;29.88;;;5.63;;
27375;SDS011;14844;51.302;6.354;2023-02-01T04:09:28;34.25;;;6.20;;
27375;SDS011;14844;51.302;6.354;2023-02-01T04:11:54;32.67;;;5.68;;
27375;SDS011;14844;51.302;6.354;2023-02-01T04:14:23;30.75;;;5.50;;
27375;SDS011;14844;51.302;6.354;2023-02-01T04:16:48;34.80;;;5.30;;
27375;SDS011;14844;51.302;6.354;2023-02-01T04:19:14;28.65;;;5.68;;
27375;SDS011;14844;51.302;6.354;2023-02-01T04:21:40;27.27;;;5.10;;
27375;SDS011;14844;51.302;6.354;2023-02-01T04:24:05;35.28;;;6.50;;
27375;SDS011;14844;51.302;6.354;2023-02-01T04:26:31;35.33;;;6.38;;
27375;SDS011;14844;51.302;6.354;2023-02-01T04:28:57;37.65;;;5.88;;
27375;SDS011;14844;51.302;6.354;2023-02-01T04:31:22;33.83;;;5.30;;
27375;SDS011;14844;51.302;6.354;2023-02-01T04:33:52;35.65;;;5.57;;
27375;SDS011;14844;51.302;6.354;2023-02-01T04:36:19;32.22;;;5.40;;
27375;SDS011;14844;51.302;6.354;2023-02-01T04:38:51;32.08;;;5.78;;
27375;SDS011;14844;51.302;6.354;2023-02-01T04:41:18;36.92;;;6.32;;
27375;SDS011;14844;51.302;6.354;2023-02-01T04:43:48;44.58;;;7.55;;
27375;SDS011;14844;51.302;6.354;2023-02-01T04:46:15;34.35;;;5.95;;
27375;SDS011;14844;51.302;6.354;2023-02-01T04:48:40;32.95;;;6.07;;
27375;SDS011;14844;51.302;6.354;2023-02-01T04:51:10;32.95;;;5.43;;
27375;SDS011;14844;51.302;6.354;2023-02-01T04:53:38;29.73;;;5.25;;
27375;SDS011;14844;51.302;6.354;2023-02-01T04:56:04;32.90;;;5.63;;
27375;SDS011;14844;51.302;6.354;2023-02-01T04:58:37;30.67;;;5.70;;
27375;SDS011;14844;51.302;6.354;2023-02-01T05:01:03;37.88;;;5.85;;
27375;SDS011;14844;51.302;6.354;2023-02-01T05:03:31;31.17;;;5.75;;
27375;SDS011;14844;51.302;6.354;2023-02-01T05:05:57;38.38;;;6.10;;
27375;SDS011;14844;51.302;6.354;2023-02-01T05:08:27;36.00;;;4.78;;
27375;SDS011;14844;51.302;6.354;2023-02-01T05:17:20;37.20;;;5.57;;
27375;SDS011;14844;51.302;6.354;2023-02-01T05:20:30;32.35;;;5.75;;
27375;SDS011;14844;51.302;6.354;2023-02-01T05:23:06;34.63;;;5.90;;
27375;SDS011;14844;51.302;6.354;2023-02-01T05:28:30;32.63;;;5.30;;
27375;SDS011;14844;51.302;6.354;2023-02-01T05:31:08;29.15;;;4.90;;
27375;SDS011;14844;51.302;6.354;2023-02-01T05:33:57;32.60;;;5.37;;
27375;SDS011;14844;51.302;6.354;2023-02-01T05:36:28;27.58;;;5.38;;
27375;SDS011;14844;51.302;6.354;2023-02-01T05:38:56;33.42;;;5.60;;
27375;SDS011;14844;51.302;6.354;2023-02-01T05:41:29;30.35;;;5.43;;
27375;SDS011;14844;51.302;6.354;2023-02-01T05:43:58;33.55;;;5.40;;
27375;SDS011;14844;51.302;6.354;2023-02-01T05:46:27;38.28;;;6.32;;
27375;SDS011;14844;51.302;6.354;2023-02-01T05:48:52;37.53;;;5.80;;
27375;SDS011;14844;51.302;6.354;2023-02-01T05:51:18;28.35;;;5.82;;
27375;SDS011;14844;51.302;6.354;2023-02-01T05:53:43;31.55;;;5.28;;
27375;SDS011;14844;51.302;6.354;2023-02-01T05:56:09;34.03;;;5.30;;
27375;SDS011;14844;51.302;6.354;2023-02-01T05:58:35;31.50;;;5.35;;
27375;SDS011;14844;51.302;6.354;2023-02-01T06:01:03;41.70;;;6.88;;
27375;SDS011;14844;51.302;6.354;2023-02-01T06:03:29;34.72;;;5.30;;
27375;SDS011;14844;51.302;6.354;2023-02-01T06:05:54;37.22;;;5.95;;
27375;SDS011;14844;51.302;6.354;2023-02-01T06:08:20;38.53;;;6.63;;
27375;SDS011;14844;51.302;6.354;2023-02-01T06:10:46;36.85;;;4.85;;
27375;SDS011;14844;51.302;6.354;2023-02-01T06:13:14;32.53;;;5.13;;
27375;SDS011;14844;51.302;6.354;2023-02-01T06:15:40;35.47;;;5.20;;
27375;SDS011;14844;51.302;6.354;2023-02-01T06:18:10;35.20;;;6.30;;
27375;SDS011;14844;51.302;6.354;2023-02-01T06:20:40;33.42;;;5.22;;
27375;SDS011;14844;51.302;6.354;2023-02-01T06:23:15;34.78;;;5.38;;
27375;SDS011;14844;51.302;6.354;2023-02-01T06:25:50;25.27;;;4.97;;
27375;SDS011;14844;51.302;6.354;2023-02-01T06:28:33;29.30;;;5.63;;
27375;SDS011;14844;51.302;6.354;2023-02-01T06:31:06;28.35;;;4.50;;
27375;SDS011;14844;51.302;6.354;2023-02-01T06:33:33;34.28;;;5.35;;
27375;SDS011;14844;51.302;6.354;2023-02-01T06:36:01;31.23;;;5.85;;
27375;SDS011;14844;51.302;6.354;2023-02-01T06:38:32;34.33;;;5.57;;
27375;SDS011;14844;51.302;6.354;2023-02-01T06:41:09;31.10;;;5.47;;
27375;SDS011;14844;51.302;6.354;2023-02-01T06:43:37;41.45;;;6.80;;
27375;SDS011;14844;51.302;6.354;2023-02-01T06:46:04;28.05;;;4.18;;
27375;SDS011;14844;51.302;6.354;2023-02-01T06:48:32;29.60;;;5.63;;
27375;SDS011;14844;51.302;6.354;2023-02-01T06:50:58;34.03;;;4.95;;
27375;SDS011;14844;51.302;6.354;2023-02-01T06:53:24;35.80;;;5.38;;
27375;SDS011;14844;51.302;6.354;2023-02-01T06:55:53;28.40;;;5.32;;
27375;SDS011;14844;51.302;6.354;2023-02-01T06:58:31;36.22;;;5.85;;
27375;SDS011;14844;51.302;6.354;2023-02-01T07:00:58;34.92;;;6.00;;
27375;SDS011;14844;51.302;6.354;2023-02-01T07:03:30;32.13;;;5.70;;
27375;SDS011;14844;51.302;6.354;2023-02-01T07:05:56;33.60;;;5.80;;
27375;SDS011;14844;51.302;6.354;2023-02-01T07:08:28;37.13;;;5.60;;
27375;SDS011;14844;51.302;6.354;2023-02-01T07:11:02;40.17;;;5.78;;
27375;SDS011;14844;51.302;6.354;2023-02-01T07:13:28;34.70;;;6.03;;
27375;SDS011;14844;51.302;6.354;2023-02-01T07:22:05;26.00;;;4.50;;
27375;SDS011;14844;51.302;6.354;2023-02-01T07:24:34;36.53;;;4.70;;
27375;SDS011;14844;51.302;6.354;2023-02-01T07:27:00;31.38;;;5.18;;
27375;SDS011;14844;51.302;6.354;2023-02-01T07:29:31;31.50;;;5.97;;
27375;SDS011;14844;51.302;6.354;2023-02-01T07:32:04;34.30;;;5.20;;
27375;SDS011;14844;51.302;6.354;2023-02-01T07:34:40;36.28;;;6.03;;
27375;SDS011;14844;51.302;6.354;2023-02-01T07:37:13;39.83;;;6.18;;
27375;SDS011;14844;51.302;6.354;2023-02-01T07:39:41;28.13;;;5.10;;
27375;SDS011;14844;51.302;6.354;2023-02-01T07:42:07;36.03;;;5.18;;
27375;SDS011;14844;51.302;6.354;2023-02-01T07:44:33;36.28;;;5.82;;
27375;SDS011;14844;51.302;6.354;2023-02-01T07:46:58;42.40;;;6.28;;
27375;SDS011;14844;51.302;6.354;2023-02-01T07:49:24;31.73;;;5.13;;
27375;SDS011;14844;51.302;6.354;2023-02-01T07:51:49;33.97;;;5.20;;
27375;SDS011;14844;51.302;6.354;2023-02-01T07:54:22;32.60;;;6.07;;
27375;SDS011;14844;51.302;6.354;2023-02-01T07:56:48;24.70;;;4.40;;
27375;SDS011;14844;51.302;6.354;2023-02-01T07:59:25;37.10;;;5.88;;
27375;SDS011;14844;51.302;6.354;2023-02-01T08:01:56;44.42;;;6.10;;
27375;SDS011;14844;51.302;6.354;2023-02-01T08:04:26;40.65;;;5.90;;
27375;SDS011;14844;51.302;6.354;2023-02-01T08:06:51;33.42;;;5.30;;
27375;SDS011;14844;51.302;6.354;2023-02-01T08:09:17;33.88;;;6.10;;
27375;SDS011;14844;51.302;6.354;2023-02-01T08:11:43;30.98;;;5.35;;
27375;SDS011;14844;51.302;6.354;2023-02-01T08:14:08;28.67;;;5.43;;
27375;SDS011;14844;51.302;6.354;2023-02-01T08:16:34;31.23;;;4.63;;
27375;SDS011;14844;51.302;6.354;2023-02-01T08:19:02;38.53;;;6.38;;
27375;SDS011;14844;51.302;6.354;2023-02-01T08:21:27;38.78;;;5.95;;
27375;SDS011;14844;51.302;6.354;2023-02-01T08:24:01;37.60;;;5.78;;
27375;SDS011;14844;51.302;6.354;2023-02-01T08:26:28;42.75;;;5.53;;
27375;SDS011;14844;51.302;6.354;2023-02-01T08:28:55;37.53;;;5.30;;
27375;SDS011;14844;51.302;6.354;2023-02-01T08:31:23;43.85;;;5.93;;
27375;SDS011;14844;51.302;6.354;2023-02-01T08:33:51;40.25;;;5.65;;
27375;SDS011;14844;51.302;6.354;2023-02-01T08:36:18;42.85;;;5.40;;
27375;SDS011;14844;51.302;6.354;2023-02-01T08:38:44;31.63;;;5.47;;
27375;SDS011;14844;51.302;6.354;2023-02-01T08:41:14;30.38;;;5.53;;
27375;SDS011;14844;51.302;6.354;2023-02-01T08:43:41;34.67;;;6.85;;
27375;SDS011;14844;51.302;6.354;2023-02-01T08:46:07;38.20;;;5.80;;
27375;SDS011;14844;51.302;6.354;2023-02-01T08:48:34;29.15;;;5.10;;
27375;SDS011;14844;51.302;6.354;2023-02-01T08:51:01;32.28;;;5.05;;
27375;SDS011;14844;51.302;6.354;2023-02-01T08:53:28;29.35;;;4.80;;
27375;SDS011;14844;51.302;6.354;2023-02-01T08:55:54;28.92;;;5.40;;
27375;SDS011;14844;51.302;6.354;2023-02-01T08:58:20;31.67;;;5.20;;
27375;SDS011;14844;51.302;6.354;2023-02-01T09:00:46;33.28;;;4.50;;
27375;SDS011;14844;51.302;6.354;2023-02-01T09:03:13;29.98;;;5.40;;
27375;SDS011;14844;51.302;6.354;2023-02-01T09:05:39;31.88;;;5.13;;
27375;SDS011;14844;51.302;6.354;2023-02-01T09:08:05;26.00;;;5.20;;
27375;SDS011;14844;51.302;6.354;2023-02-01T09:10:31;35.65;;;5.15;;
27375;SDS011;14844;51.302;6.354;2023-02-01T09:12:57;30.92;;;5.97;;
27375;SDS011;14844;51.302;6.354;2023-02-01T09:15:22;40.25;;;7.00;;
27375;SDS011;14844;51.302;6.354;2023-02-01T09:17:48;30.00;;;6.00;;
27375;SDS011;14844;51.302;6.354;2023-02-01T09:20:14;33.92;;;6.03;;
27375;SDS011;14844;51.302;6.354;2023-02-01T09:22:40;27.20;;;5.35;;
27375;SDS011;14844;51.302;6.354;2023-02-01T09:25:06;33.40;;;5.75;;
27375;SDS011;14844;51.302;6.354;2023-02-01T09:27:32;29.08;;;5.43;;
27375;SDS011;14844;51.302;6.354;2023-02-01T09:29:58;42.50;;;6.38;;
27375;SDS011;14844;51.302;6.354;2023-02-01T09:32:23;33.97;;;6.28;;
27375;SDS011;14844;51.302;6.354;2023-02-01T09:34:50;30.10;;;5.20;;
27375;SDS011;14844;51.302;6.354;2023-02-01T09:37:16;27.40;;;5.43;;
27375;SDS011;14844;51.302;6.354;2023-02-01T09:39:42;32.15;;;4.95;;
27375;SDS011;14844;51.302;6.354;2023-02-01T09:42:14;40.22;;;5.75;;
27375;SDS011;14844;51.302;6.354;2023-02-01T09:47:27;33.90;;;5.90;;
27375;SDS011;14844;51.302;6.354;2023-02-01T09:49:59;36.88;;;5.75;;
27375;SDS011;14844;51.302;6.354;2023-02-01T09:55:23;27.55;;;5.40;;
27375;SDS011;14844;51.302;6.354;2023-02-01T09:58:02;26.10;;;4.80;;
27375;SDS011;14844;51.302;6.354;2023-02-01T10:00:35;32.75;;;5.85;;
27375;SDS011;14844;51.302;6.354;2023-02-01T10:03:03;30.98;;;5.20;;
27375;SDS011;14844;51.302;6.354;2023-02-01T10:05:45;31.90;;;5.50;;
27375;SDS011;14844;51.302;6.354;2023-02-01T10:11:26;33.58;;;5.03;;
27375;SDS011;14844;51.302;6.354;2023-02-01T10:17:23;29.58;;;5.43;;
27375;SDS011;14844;51.302;6.354;2023-02-01T10:22:59;36.35;;;6.13;;
27375;SDS011;14844;51.302;6.354;2023-02-01T10:25:35;28.13;;;4.63;;
27375;SDS011;14844;51.302;6.354;2023-02-01T10:28:06;30.42;;;5.25;;
27375;SDS011;14844;51.302;6.354;2023-02-01T10:30:40;31.38;;;5.95;;
27375;SDS011;14844;51.302;6.354;2023-02-01T10:33:17;23.08;;;4.57;;
27375;SDS011;14844;51.302;6.354;2023-02-01T10:35:51;29.17;;;5.10;;
27375;SDS011;14844;51.302;6.354;2023-02-01T10:38:27;27.73;;;4.93;;
27375;SDS011;14844;51.302;6.354;2023-02-01T10:40:55;31.98;;;5.50;;
27375;SDS011;14844;51.302;6.354;2023-02-01T10:43:26;35.88;;;6.22;;
27375;SDS011;14844;51.302;6.354;2023-02-01T10:45:52;27.50;;;5.20;;
27375;SDS011;14844;51.302;6.354;2023-02-01T10:48:18;30.10;;;5.68;;
27375;SDS011;14844;51.302;6.354;2023-02-01T10:50:47;31.13;;;4.80;;
27375;SDS011;14844;51.302;6.354;2023-02-01T10:53:20;23.15;;;5.20;;
27375;SDS011;14844;51.302;6.354;2023-02-01T10:56:05;29.42;;;5.25;;
27375;SDS011;14844;51.302;6.354;2023-02-01T11:01:02;21.77;;;3.92;;
27375;SDS011;14844;51.302;6.354;2023-02-01T11:03:45;34.92;;;5.43;;
27375;SDS011;14844;51.302;6.354;2023-02-01T11:11:27;31.85;;;5.63;;
27375;SDS011;14844;51.302;6.354;2023-02-01T11:13:58;31.70;;;5.85;;
27375;SDS011;14844;51.302;6.354;2023-02-01T11:16:29;27.50;;;4.80;;
27375;SDS011;14844;51.302;6.354;2023-02-01T11:18:59;28.35;;;5.28;;
27375;SDS011;14844;51.302;6.354;2023-02-01T11:21:24;31.33;;;5.25;;
27375;SDS011;14844;51.302;6.354;2023-02-01T11:23:50;28.58;;;5.18;;
27375;SDS011;14844;51.302;6.354;2023-02-01T11:26:20;32.13;;;5.40;;
27375;SDS011;14844;51.302;6.354;2023-02-01T11:28:52;23.52;;;4.70;;
27375;SDS011;14844;51.302;6.354;2023-02-01T11:31:22;32.28;;;5.43;;
27375;SDS011;14844;51.302;6.354;2023-02-01T11:33:50;27.48;;;5.07;;
27375;SDS011;14844;51.302;6.354;2023-02-01T11:36:30;29.10;;;4.82;;
27375;SDS011;14844;51.302;6.354;2023-02-01T11:39:24;29.60;;;4.88;;
27375;SDS011;14844;51.302;6.354;2023-02-01T11:44:39;30.77;;;5.43;;
27375;SDS011;14844;51.302;6.354;2023-02-01T11:49:51;36.38;;;6.00;;
27375;SDS011;14844;51.302;6.354;2023-02-01T12:00:33;25.33;;;4.85;;
27375;SDS011;14844;51.302;6.354;2023-02-01T12:08:56;29.00;;;5.18;;
27375;SDS011;14844;51.302;6.354;2023-02-01T12:20:52;28.92;;;4.85;;
27375;SDS011;14844;51.302;6.354;2023-02-01T12:23:46;23.92;;;4.63;;
27375;SDS011;14844;51.302;6.354;2023-02-01T12:26:38;32.60;;;4.75;;
27375;SDS011;14844;51.302;6.354;2023-02-01T12:37:44;24.73;;;4.05;;
27375;SDS011;14844;51.302;6.354;2023-02-01T12:48:33;25.35;;;4.55;;
27375;SDS011;14844;51.302;6.354;2023-02-01T12:51:27;22.25;;;4.40;;
27375;SDS011;14844;51.302;6.354;2023-02-01T12:54:02;26.17;;;3.88;;
27375;SDS011;14844;51.302;6.354;2023-02-01T12:57:10;21.40;;;4.13;;
27375;SDS011;14844;51.302;6.354;2023-02-01T12:59:39;25.00;;;4.35;;
27375;SDS011;14844;51.302;6.354;2023-02-01T13:02:21;19.65;;;3.30;;
27375;SDS011;14844;51.302;6.354;2023-02-01T13:10:01;26.30;;;3.58;;
27375;SDS011;14844;51.302;6.354;2023-02-01T13:12:37;21.80;;;4.05;;
27375;SDS011;14844;51.302;6.354;2023-02-01T13:15:13;19.92;;;3.15;;
27375;SDS011;14844;51.302;6.354;2023-02-01T13:17:42;20.92;;;4.35;;
27375;SDS011;14844;51.302;6.354;2023-02-01T13:22:40;20.50;;;3.40;;
27375;SDS011;14844;51.302;6.354;2023-02-01T13:25:18;16.63;;;2.67;;
27375;SDS011;14844;51.302;6.354;2023-02-01T13:28:05;21.55;;;3.75;;
27375;SDS011;14844;51.302;6.354;2023-02-01T13:34:01;22.58;;;4.22;;
27375;SDS011;14844;51.302;6.354;2023-02-01T13:41:41;24.95;;;4.35;;
27375;SDS011;14844;51.302;6.354;2023-02-01T13:44:25;20.15;;;2.97;;
27375;SDS011;14844;51.302;6.354;2023-02-01T13:46:59;22.67;;;3.33;;
27375;SDS011;14844;51.302;6.354;2023-02-01T13:49:28;20.85;;;3.45;;
27375;SDS011;14844;51.302;6.354;2023-02-01T13:51:57;23.13;;;3.70;;
27375;SDS011;14844;51.302;6.354;2023-02-01T13:54:33;21.90;;;3.97;;
27375;SDS011;14844;51.302;6.354;2023-02-01T13:57:03;18.77;;;3.50;;
27375;SDS011;14844;51.302;6.354;2023-02-01T13:59:45;18.27;;;3.20;;
27375;SDS011;14844;51.302;6.354;2023-02-01T14:05:02;23.58;;;3.47;;
27375;SDS011;14844;51.302;6.354;2023-02-01T14:24:15;22.45;;;3.70;;
27375;SDS011;14844;51.302;6.354;2023-02-01T14:26:52;23.63;;;3.63;;
27375;SDS011;14844;51.302;6.354;2023-02-01T14:37:32;20.27;;;3.28;;
27375;SDS011;14844;51.302;6.354;2023-02-01T14:40:02;26.45;;;3.83;;
27375;SDS011;14844;51.302;6.354;2023-02-01T14:55:43;27.65;;;4.22;;
27375;SDS011;14844;51.302;6.354;2023-02-01T14:58:19;27.30;;;3.70;;
27375;SDS011;14844;51.302;6.354;2023-02-01T15:00:55;25.75;;;3.67;;
27375;SDS011;14844;51.302;6.354;2023-02-01T15:06:25;16.73;;;3.58;;
27375;SDS011;14844;51.302;6.354;2023-02-01T15:09:00;20.08;;;3.97;;
27375;SDS011;14844;51.302;6.354;2023-02-01T15:14:31;29.10;;;4.13;;
27375;SDS011;14844;51.302;6.354;2023-02-01T15:17:18;29.10;;;4.78;;
27375;SDS011;14844;51.302;6.354;2023-02-01T15:19:55;23.15;;;3.60;;
27375;SDS011;14844;51.302;6.354;2023-02-01T15:22:22;25.33;;;4.65;;
27375;SDS011;14844;51.302;6.354;2023-02-01T15:24:52;19.38;;;3.60;;
27375;SDS011;14844;51.302;6.354;2023-02-01T15:27:19;24.13;;;3.97;;
27375;SDS011;14844;51.302;6.354;2023-02-01T15:29:45;33.17;;;4.72;;
27375;SDS011;14844;51.302;6.354;2023-02-01T15:34:59;31.95;;;3.97;;
27375;SDS011;14844;51.302;6.354;2023-02-01T15:37:26;28.25;;;4.10;;
27375;SDS011;14844;51.302;6.354;2023-02-01T15:40:14;29.33;;;4.20;;
27375;SDS011;14844;51.302;6.354;2023-02-01T15:45:25;27.60;;;3.78;;
27375;SDS011;14844;51.302;6.354;2023-02-01T15:47:53;24.73;;;3.95;;
27375;SDS011;14844;51.302;6.354;2023-02-01T15:50:21;26.80;;;4.00;;
27375;SDS011;14844;51.302;6.354;2023-02-01T15:52:48;29.27;;;4.53;;
27375;SDS011;14844;51.302;6.354;2023-02-01T15:57:49;22.90;;;3.75;;
27375;SDS011;14844;51.302;6.354;2023-02-01T16:00:23;26.42;;;4.07;;
27375;SDS011;14844;51.302;6.354;2023-02-01T16:02:56;24.02;;;3.80;;
27375;SDS011;14844;51.302;6.354;2023-02-01T16:05:36;26.83;;;4.18;;
27375;SDS011;14844;51.302;6.354;2023-02-01T16:08:19;27.80;;;4.65;;
27375;SDS011;14844;51.302;6.354;2023-02-01T16:10:49;25.50;;;4.55;;
27375;SDS011;14844;51.302;6.354;2023-02-01T16:13:17;18.58;;;3.53;;
27375;SDS011;14844;51.302;6.354;2023-02-01T16:15:44;20.27;;;3.90;;
27375;SDS011;14844;51.302;6.354;2023-02-01T16:18:10;26.25;;;4.00;;
27375;SDS011;14844;51.302;6.354;2023-02-01T16:20:37;27.08;;;3.88;;
27375;SDS011;14844;51.302;6.354;2023-02-01T16:23:07;23.07;;;3.90;;
27375;SDS011;14844;51.302;6.354;2023-02-01T16:25:38;25.52;;;4.00;;
27375;SDS011;14844;51.302;6.354;2023-02-01T16:28:04;26.42;;;4.18;;
27375;SDS011;14844;51.302;6.354;2023-02-01T16:30:30;23.67;;;3.80;;
27375;SDS011;14844;51.302;6.354;2023-02-01T16:32:57;22.77;;;4.68;;
27375;SDS011;14844;51.302;6.354;2023-02-01T16:35:27;22.77;;;3.60;;
27375;SDS011;14844;51.302;6.354;2023-02-01T16:37:58;27.38;;;4.35;;
27375;SDS011;14844;51.302;6.354;2023-02-01T16:40:36;24.20;;;4.03;;
27375;SDS011;14844;51.302;6.354;2023-02-01T16:43:15;23.45;;;4.40;;
27375;SDS011;14844;51.302;6.354;2023-02-01T16:51:07;26.23;;;3.33;;
27375;SDS011;14844;51.302;6.354;2023-02-01T16:53:40;31.80;;;4.40;;
27375;SDS011;14844;51.302;6.354;2023-02-01T16:56:23;28.42;;;4.63;;
27375;SDS011;14844;51.302;6.354;2023-02-01T17:02:49;25.17;;;4.00;;
27375;SDS011;14844;51.302;6.354;2023-02-01T17:05:27;28.73;;;4.22;;
27375;SDS011;14844;51.302;6.354;2023-02-01T17:08:06;18.52;;;3.78;;
27375;SDS011;14844;51.302;6.354;2023-02-01T17:10:37;18.85;;;3.60;;
27375;SDS011;14844;51.302;6.354;2023-02-01T17:13:07;25.67;;;3.65;;
27375;SDS011;14844;51.302;6.354;2023-02-01T17:15:37;26.40;;;4.22;;
27375;SDS011;14844;51.302;6.354;2023-02-01T17:18:07;21.27;;;3.45;;
27375;SDS011;14844;51.302;6.354;2023-02-01T17:20:42;27.02;;;3.63;;
27375;SDS011;14844;51.302;6.354;2023-02-01T17:23:08;18.25;;;3.30;;
27375;SDS011;14844;51.302;6.354;2023-02-01T17:25:36;24.10;;;3.80;;
27375;SDS011;14844;51.302;6.354;2023-02-01T17:28:20;21.75;;;3.63;;
27375;SDS011;14844;51.302;6.354;2023-02-01T17:30:51;24.83;;;4.23;;
27375;SDS011;14844;51.302;6.354;2023-02-01T17:33:34;32.28;;;3.70;;
27375;SDS011;14844;51.302;6.354;2023-02-01T17:36:15;30.00;;;4.50;;
27375;SDS011;14844;51.302;6.354;2023-02-01T17:38:42;21.85;;;4.18;;
27375;SDS011;14844;51.302;6.354;2023-02-01T17:41:12;23.98;;;3.85;;
27375;SDS011;14844;51.302;6.354;2023-02-01T17:43:41;26.70;;;3.88;;
27375;SDS011;14844;51.302;6.354;2023-02-01T17:46:14;24.50;;;4.05;;
27375;SDS011;14844;51.302;6.354;2023-02-01T17:48:51;25.63;;;4.28;;
27375;SDS011;14844;51.302;6.354;2023-02-01T17:51:27;27.23;;;3.72;;
27375;SDS011;14844;51.302;6.354;2023-02-01T17:53:54;24.67;;;3.83;;
27375;SDS011;14844;51.302;6.354;2023-02-01T17:56:38;23.15;;;3.83;;
27375;SDS011;14844;51.302;6.354;2023-02-01T17:59:24;25.73;;;3.95;;
27375;SDS011;14844;51.302;6.354;2023-02-01T18:01:53;27.60;;;4.38;;
27375;SDS011;14844;51.302;6.354;2023-02-01T18:06:03;24.65;;;3.80;;
27375;SDS011;14844;51.302;6.354;2023-02-01T18:08:26;28.17;;;4.13;;
27375;SDS011;14844;51.302;6.354;2023-02-01T18:21:44;31.77;;;4.97;;
27375;SDS011;14844;51.302;6.354;2023-02-01T18:24:38;22.20;;;3.90;;